createdAt,value
2017-10-25T00:01:52.414Z,3.80
2017-10-25T00:04:18.767Z,7.30
2017-10-25T00:06:45.161Z,3.13
2017-10-25T00:09:11.564Z,3.67
2017-10-25T00:11:38.653Z,3.40
2017-10-25T00:14:05.202Z,4.50
2017-10-25T00:16:31.709Z,2.60
2017-10-25T00:18:58.046Z,6.13
2017-10-25T00:21:24.400Z,4.00
2017-10-25T00:23:50.903Z,1.70
2017-10-25T00:26:17.233Z,1.77
2017-10-25T00:28:43.629Z,1.60
2017-10-25T00:31:10.747Z,2.17
2017-10-25T00:33:37.050Z,1.67
2017-10-25T00:36:03.402Z,2.23
2017-10-25T00:38:29.846Z,1.60
2017-10-25T00:40:56.177Z,1.83
2017-10-25T00:43:22.447Z,1.53
2017-10-25T00:45:49.894Z,3.10
2017-10-25T00:48:17.007Z,1.33
2017-10-25T00:50:43.367Z,2.50
2017-10-25T00:53:09.745Z,1.97
2017-10-25T00:55:36.094Z,1.40
2017-10-25T00:58:02.484Z,1.40
2017-10-25T01:00:29.747Z,1.83
2017-10-25T01:02:56.122Z,6.30
2017-10-25T01:05:22.540Z,1.47
2017-10-25T01:07:48.908Z,3.87
2017-10-25T01:10:15.323Z,1.90
2017-10-25T01:12:41.718Z,1.53
2017-10-25T01:15:08.035Z,1.00
2017-10-25T01:17:35.129Z,2.20
2017-10-25T01:20:02.355Z,1.80
2017-10-25T01:22:28.888Z,1.40
2017-10-25T01:24:55.223Z,1.77
2017-10-25T01:27:21.574Z,7.47
2017-10-25T01:29:47.980Z,1.30
2017-10-25T01:32:14.465Z,1.03
2017-10-25T01:34:40.757Z,1.63
2017-10-25T01:37:07.062Z,1.53
2017-10-25T01:39:33.459Z,1.50
2017-10-25T01:41:59.777Z,7.93
2017-10-25T01:44:26.339Z,1.43
2017-10-25T01:46:52.637Z,1.70
2017-10-25T01:49:18.929Z,1.10
2017-10-25T01:51:45.285Z,3.13
2017-10-25T01:54:11.604Z,1.20
2017-10-25T01:56:37.953Z,1.20
2017-10-25T01:59:04.367Z,1.30
2017-10-25T02:01:30.725Z,1.70
2017-10-25T02:03:57.130Z,1.73
2017-10-25T02:06:23.482Z,2.10
2017-10-25T02:08:49.798Z,2.50
2017-10-25T02:11:16.173Z,2.93
2017-10-25T02:13:42.476Z,3.37
2017-10-25T02:16:08.792Z,2.63
2017-10-25T02:18:35.153Z,2.67
2017-10-25T02:21:01.512Z,5.47
2017-10-25T02:23:28.606Z,2.40
2017-10-25T02:25:54.927Z,2.07
2017-10-25T02:28:21.266Z,1.80
2017-10-25T02:30:47.612Z,10.33
2017-10-25T02:33:13.907Z,1.80
2017-10-25T02:35:41.040Z,4.60
2017-10-25T02:38:08.111Z,2.53
2017-10-25T02:40:35.155Z,2.37
2017-10-25T02:43:02.337Z,2.00
2017-10-25T02:45:28.769Z,2.37
2017-10-25T02:47:55.146Z,1.70
2017-10-25T02:50:21.548Z,2.70
2017-10-25T02:52:47.872Z,1.93
2017-10-25T02:55:14.203Z,1.43
2017-10-25T02:57:40.573Z,1.17
2017-10-25T03:00:06.933Z,1.50
2017-10-25T03:02:33.348Z,1.67
2017-10-25T03:05:00.420Z,2.00
2017-10-25T03:07:26.789Z,2.20
2017-10-25T03:09:53.170Z,2.17
2017-10-25T03:12:20.224Z,2.30
2017-10-25T03:14:46.670Z,5.20
2017-10-25T03:17:13.050Z,3.60
2017-10-25T03:19:46.443Z,4.27
2017-10-25T03:22:12.861Z,3.27
2017-10-25T03:24:39.261Z,4.73
2017-10-25T03:27:05.597Z,2.23
2017-10-25T03:29:31.917Z,2.33
2017-10-25T03:31:58.560Z,3.33
2017-10-25T03:34:24.861Z,2.80
2017-10-25T03:36:51.980Z,3.70
2017-10-25T03:39:18.390Z,5.63
2017-10-25T03:41:44.739Z,5.70
2017-10-25T03:44:11.064Z,4.77
2017-10-25T03:46:38.599Z,4.07
2017-10-25T03:49:04.942Z,4.57
2017-10-25T03:51:31.324Z,3.30
2017-10-25T03:53:57.743Z,3.00
2017-10-25T03:56:24.094Z,6.00
2017-10-25T03:58:50.448Z,3.80
2017-10-25T04:01:17.576Z,6.33
2017-10-25T04:03:43.919Z,5.03
2017-10-25T04:06:11.040Z,4.37
2017-10-25T04:08:38.104Z,3.80
2017-10-25T04:11:04.458Z,4.07
2017-10-25T04:13:31.569Z,3.97
2017-10-25T04:15:58.023Z,3.83
2017-10-25T04:18:25.176Z,4.03
2017-10-25T04:20:52.351Z,4.37
2017-10-25T04:23:18.795Z,3.83
2017-10-25T04:25:45.136Z,5.13
2017-10-25T04:28:11.470Z,3.97
2017-10-25T04:30:37.791Z,3.67
2017-10-25T04:33:04.244Z,4.40
2017-10-25T04:35:30.690Z,4.87
2017-10-25T04:37:57.096Z,6.10
2017-10-25T04:40:23.485Z,4.53
2017-10-25T04:42:50.618Z,5.20
2017-10-25T04:45:17.060Z,4.50
2017-10-25T04:47:43.447Z,6.30
2017-10-25T04:50:09.766Z,4.47
2017-10-25T04:52:36.136Z,4.60
2017-10-25T04:55:02.553Z,4.80
2017-10-25T04:57:28.936Z,5.37
2017-10-25T04:59:56.049Z,5.00
2017-10-25T05:02:22.373Z,4.67
2017-10-25T05:04:48.861Z,5.80
2017-10-25T05:07:15.265Z,4.10
2017-10-25T05:09:41.684Z,4.40
2017-10-25T05:12:08.213Z,7.90
2017-10-25T05:14:34.643Z,7.50
2017-10-25T05:17:01.045Z,3.37
2017-10-25T05:19:27.561Z,4.00
2017-10-25T05:21:54.023Z,3.10
2017-10-25T05:24:20.452Z,9.87
2017-10-25T05:26:46.873Z,2.60
2017-10-25T05:29:13.972Z,2.37
2017-10-25T05:31:40.463Z,3.10
2017-10-25T05:34:06.794Z,2.63
2017-10-25T05:36:33.230Z,3.43
2017-10-25T05:38:59.587Z,2.00
2017-10-25T05:41:25.968Z,5.27
2017-10-25T05:43:52.356Z,5.10
2017-10-25T05:46:18.722Z,3.87
2017-10-25T05:48:45.138Z,2.40
2017-10-25T05:51:11.443Z,2.97
2017-10-25T05:53:37.836Z,3.87
2017-10-25T05:56:04.177Z,6.47
2017-10-25T05:58:30.531Z,5.27
2017-10-25T06:00:56.829Z,5.20
2017-10-25T06:03:23.891Z,4.33
2017-10-25T06:05:50.969Z,3.90
2017-10-25T06:08:17.285Z,4.53
2017-10-25T06:10:43.775Z,10.80
2017-10-25T06:13:10.153Z,5.90
2017-10-25T06:15:36.438Z,2.63
2017-10-25T06:18:02.726Z,1.90
2017-10-25T06:20:29.184Z,2.90
2017-10-25T06:22:55.534Z,3.40
2017-10-25T06:25:21.818Z,2.63
2017-10-25T06:27:48.170Z,3.70
2017-10-25T06:30:14.459Z,5.93
2017-10-25T06:32:40.739Z,2.40
2017-10-25T06:35:07.202Z,1.80
2017-10-25T06:37:34.293Z,2.40
2017-10-25T06:40:00.762Z,1.80
2017-10-25T06:42:27.064Z,1.77
2017-10-25T06:45:00.305Z,2.27
2017-10-25T06:47:26.587Z,1.80
2017-10-25T06:49:52.890Z,1.80
2017-10-25T06:52:19.890Z,2.50
2017-10-25T06:54:46.199Z,1.73
2017-10-25T06:57:12.527Z,2.10
2017-10-25T06:59:38.829Z,1.93
2017-10-25T07:02:05.309Z,1.20
2017-10-25T07:04:31.606Z,1.30
2017-10-25T07:06:57.981Z,1.43
2017-10-25T07:09:24.282Z,2.50
2017-10-25T07:11:50.621Z,1.33
2017-10-25T07:14:17.025Z,2.10
2017-10-25T07:16:43.308Z,3.63
2017-10-25T07:19:10.376Z,1.43
2017-10-25T07:21:36.802Z,1.50
2017-10-25T07:24:03.176Z,2.20
2017-10-25T07:26:29.552Z,2.20
2017-10-25T07:28:55.837Z,5.40
2017-10-25T07:31:22.146Z,2.03
2017-10-25T07:33:49.218Z,1.80
2017-10-25T07:36:15.840Z,6.60
2017-10-25T07:38:42.848Z,1.93
2017-10-25T07:41:09.142Z,1.90
2017-10-25T07:43:35.402Z,1.13
2017-10-25T07:46:01.788Z,1.00
2017-10-25T07:48:28.125Z,1.00
2017-10-25T07:50:54.419Z,1.53
2017-10-25T07:53:20.750Z,1.10
2017-10-25T07:55:47.118Z,1.07
2017-10-25T07:58:13.482Z,1.43
2017-10-25T08:00:39.821Z,1.63
2017-10-25T08:03:06.169Z,3.63
2017-10-25T08:05:32.548Z,6.97
2017-10-25T08:07:58.984Z,1.00
2017-10-25T08:10:25.450Z,1.50
2017-10-25T08:12:52.066Z,3.73
2017-10-25T08:15:18.405Z,0.83
2017-10-25T08:17:44.718Z,1.10
2017-10-25T08:20:11.653Z,2.00
2017-10-25T08:22:38.778Z,1.30
2017-10-25T08:25:05.165Z,0.70
2017-10-25T08:27:31.443Z,2.20
2017-10-25T08:29:57.803Z,1.03
2017-10-25T08:32:24.166Z,1.40
2017-10-25T08:34:50.462Z,1.10
2017-10-25T08:37:17.771Z,1.10
2017-10-25T08:39:44.118Z,1.93
2017-10-25T08:42:10.796Z,1.00
2017-10-25T08:44:37.167Z,0.97
2017-10-25T08:47:03.533Z,0.70
2017-10-25T08:49:29.910Z,0.80
2017-10-25T08:51:56.760Z,0.73
2017-10-25T08:54:23.117Z,0.80
2017-10-25T08:56:49.540Z,1.57
2017-10-25T08:59:17.573Z,1.60
2017-10-25T09:01:44.040Z,1.33
2017-10-25T09:04:10.481Z,0.90
2017-10-25T09:06:37.345Z,0.70
2017-10-25T09:09:03.738Z,1.37
2017-10-25T09:11:30.079Z,0.70
2017-10-25T09:13:56.394Z,0.70
2017-10-25T09:16:22.991Z,1.37
2017-10-25T09:18:50.116Z,2.30
2017-10-25T09:21:16.422Z,0.60
2017-10-25T09:23:43.251Z,0.83
2017-10-25T09:26:09.650Z,0.90
2017-10-25T09:28:36.735Z,0.50
2017-10-25T09:31:03.054Z,0.60
2017-10-25T09:33:29.410Z,0.60
2017-10-25T09:35:55.752Z,0.70
2017-10-25T09:38:22.076Z,1.80
2017-10-25T09:40:48.462Z,0.97
2017-10-25T09:43:15.496Z,0.70
2017-10-25T09:45:42.909Z,0.60
2017-10-25T09:48:09.939Z,0.60
2017-10-25T09:50:36.392Z,0.70
2017-10-25T09:53:02.737Z,0.60
2017-10-25T09:55:29.099Z,0.90
2017-10-25T09:57:56.152Z,8.80
2017-10-25T10:00:23.302Z,0.80
2017-10-25T10:02:50.420Z,1.47
2017-10-25T10:05:16.742Z,1.00
2017-10-25T10:07:43.074Z,1.00
2017-10-25T10:10:09.624Z,1.13
2017-10-25T10:12:35.979Z,0.70
2017-10-25T10:15:03.195Z,1.30
2017-10-25T10:17:29.651Z,1.03
2017-10-25T10:19:56.037Z,1.07
2017-10-25T10:22:22.535Z,0.77
2017-10-25T10:24:49.653Z,2.63
2017-10-25T10:27:15.947Z,4.40
2017-10-25T10:29:42.373Z,0.93
2017-10-25T10:32:08.611Z,2.20
2017-10-25T10:34:34.995Z,2.70
2017-10-25T10:37:01.296Z,1.30
2017-10-25T10:39:28.439Z,0.90
2017-10-25T10:41:54.929Z,1.20
2017-10-25T10:44:21.537Z,1.17
2017-10-25T10:46:47.926Z,0.60
2017-10-25T10:49:15.298Z,0.97
2017-10-25T10:51:41.955Z,0.80
2017-10-25T10:54:08.348Z,1.63
2017-10-25T10:56:34.741Z,0.63
2017-10-25T10:59:01.181Z,1.20
2017-10-25T11:01:27.544Z,0.60
2017-10-25T11:03:53.918Z,1.00
2017-10-25T11:06:20.338Z,0.93
2017-10-25T11:08:46.884Z,3.53
2017-10-25T11:11:13.388Z,0.80
2017-10-25T11:13:39.823Z,1.00
2017-10-25T11:16:06.207Z,4.83
2017-10-25T11:18:32.982Z,1.27
2017-10-25T11:20:59.354Z,0.60
2017-10-25T11:23:25.674Z,1.13
2017-10-25T11:25:52.103Z,1.77
2017-10-25T11:28:18.574Z,0.87
2017-10-25T11:30:45.071Z,0.90
2017-10-25T11:33:11.391Z,1.47
2017-10-25T11:35:37.778Z,1.63
2017-10-25T11:38:04.245Z,0.70
2017-10-25T11:40:30.669Z,0.70
2017-10-25T11:42:57.892Z,0.70
2017-10-25T11:45:24.305Z,1.07
2017-10-25T11:47:50.766Z,0.80
2017-10-25T11:50:17.315Z,0.60
2017-10-25T11:52:44.432Z,1.50
2017-10-25T11:55:12.019Z,0.70
2017-10-25T11:57:38.482Z,0.63
2017-10-25T12:00:04.940Z,1.00
2017-10-25T12:02:31.420Z,0.93
2017-10-25T12:04:57.810Z,1.00
2017-10-25T12:07:24.157Z,0.73
2017-10-25T12:09:50.498Z,2.40
2017-10-25T12:12:16.950Z,1.40
2017-10-25T12:14:43.412Z,0.70
2017-10-25T12:17:10.465Z,1.00
2017-10-25T12:19:36.750Z,5.70
2017-10-25T12:22:03.051Z,1.40
2017-10-25T12:24:29.613Z,0.60
2017-10-25T12:26:55.916Z,1.03
2017-10-25T12:29:23.648Z,2.00
2017-10-25T12:31:50.749Z,0.60
2017-10-25T12:34:17.117Z,1.83
2017-10-25T12:36:44.191Z,0.80
2017-10-25T12:39:10.532Z,1.13
2017-10-25T12:41:36.900Z,1.13
2017-10-25T12:44:03.259Z,0.70
2017-10-25T12:46:30.415Z,0.83
2017-10-25T12:48:57.525Z,1.40
2017-10-25T12:51:23.853Z,0.80
2017-10-25T12:53:50.190Z,0.90
2017-10-25T12:56:17.394Z,1.90
2017-10-25T12:58:43.774Z,0.80
2017-10-25T13:01:10.268Z,0.90
2017-10-25T13:03:36.555Z,1.20
2017-10-25T13:06:02.973Z,1.10
2017-10-25T13:08:29.272Z,0.70
2017-10-25T13:11:17.429Z,1.93
2017-10-25T13:17:04.613Z,0.80
2017-10-25T13:19:31.744Z,1.20
2017-10-25T13:21:58.094Z,1.10
2017-10-25T13:24:24.576Z,1.13
2017-10-25T13:26:50.990Z,3.37
2017-10-25T13:29:17.471Z,1.53
2017-10-25T13:31:44.729Z,1.03
2017-10-25T13:34:11.961Z,3.33
2017-10-25T13:36:38.345Z,1.10
2017-10-25T13:39:05.645Z,3.90
2017-10-25T13:41:32.227Z,3.90
2017-10-25T13:43:59.487Z,1.07
2017-10-25T13:46:25.787Z,0.80
2017-10-25T13:48:52.194Z,1.83
2017-10-25T13:51:18.671Z,3.27
2017-10-25T13:53:45.071Z,1.13
2017-10-25T13:56:11.556Z,3.00
2017-10-25T13:58:38.607Z,2.77
2017-10-25T14:01:05.785Z,1.83
2017-10-25T14:03:32.334Z,2.00
2017-10-25T14:05:58.675Z,1.80
2017-10-25T14:08:25.084Z,2.10
2017-10-25T14:10:51.596Z,2.00
2017-10-25T14:13:18.734Z,2.00
2017-10-25T14:15:45.772Z,1.80
2017-10-25T14:18:13.028Z,1.83
2017-10-25T14:20:40.086Z,1.57
2017-10-25T14:23:07.149Z,1.67
2017-10-25T14:25:33.492Z,1.60
2017-10-25T14:28:18.575Z,1.60
2017-10-25T14:30:45.062Z,4.80
2017-10-25T14:33:11.416Z,1.40
2017-10-25T14:35:37.966Z,1.47
2017-10-25T14:38:04.286Z,1.67
2017-10-25T14:40:30.630Z,2.10
2017-10-25T14:42:56.988Z,2.10
2017-10-25T14:45:23.443Z,1.30
2017-10-25T14:47:49.810Z,1.50
2017-10-25T14:50:16.191Z,3.00
2017-10-25T14:52:42.618Z,1.60
2017-10-25T14:55:09.047Z,1.90
2017-10-25T14:57:35.447Z,1.77
2017-10-25T15:00:01.839Z,2.10
2017-10-25T15:02:28.218Z,4.73
2017-10-25T15:04:54.717Z,2.63
2017-10-25T15:07:21.904Z,2.90
2017-10-25T15:09:48.322Z,4.77
2017-10-25T15:12:15.486Z,4.67
2017-10-25T15:14:42.797Z,4.23
2017-10-25T15:17:09.964Z,2.03
2017-10-25T15:19:36.362Z,2.30
2017-10-25T15:22:02.804Z,1.77
2017-10-25T15:24:29.257Z,2.03
2017-10-25T15:26:56.542Z,2.80
2017-10-25T15:29:22.902Z,3.63
2017-10-25T15:31:49.230Z,3.23
2017-10-25T15:34:15.595Z,8.23
2017-10-25T15:36:42.804Z,2.30
2017-10-25T15:39:09.293Z,2.87
2017-10-25T15:41:35.867Z,2.60
2017-10-25T15:44:02.514Z,2.17
2017-10-25T15:46:28.889Z,2.07
2017-10-25T15:48:55.390Z,2.90
2017-10-25T15:51:21.837Z,2.97
2017-10-25T15:53:48.323Z,2.00
2017-10-25T15:56:15.516Z,2.13
2017-10-25T15:58:42.080Z,2.20
2017-10-25T16:01:08.706Z,3.10
2017-10-25T16:03:35.138Z,3.83
2017-10-25T16:06:01.525Z,6.60
2017-10-25T16:08:29.736Z,3.00
2017-10-25T16:10:56.175Z,2.90
2017-10-25T16:13:23.447Z,5.57
2017-10-25T16:15:50.666Z,4.43
2017-10-25T16:18:17.199Z,2.17
2017-10-25T16:20:43.715Z,5.43
2017-10-25T16:23:10.106Z,5.67
2017-10-25T16:25:36.553Z,3.67
2017-10-25T16:28:02.962Z,3.67
2017-10-25T16:30:29.289Z,3.20
2017-10-25T16:32:55.799Z,3.10
2017-10-25T16:35:22.200Z,4.77
2017-10-25T16:37:49.413Z,3.20
2017-10-25T16:40:15.878Z,3.73
2017-10-25T16:42:42.462Z,3.60
2017-10-25T16:45:08.862Z,1.90
2017-10-25T16:47:35.982Z,2.43
2017-10-25T16:50:02.558Z,2.40
2017-10-25T16:52:29.285Z,4.43
2017-10-25T16:54:55.831Z,4.60
2017-10-25T16:57:22.921Z,2.70
2017-10-25T16:59:49.529Z,4.03
2017-10-25T17:02:16.005Z,1.90
2017-10-25T17:04:42.431Z,2.63
2017-10-25T17:07:08.803Z,3.17
2017-10-25T17:09:35.239Z,2.50
2017-10-25T17:12:01.675Z,7.70
2017-10-25T17:14:28.877Z,2.90
2017-10-25T17:16:55.236Z,2.77
2017-10-25T17:19:22.519Z,1.93
2017-10-25T17:21:49.121Z,3.90
2017-10-25T17:24:15.482Z,3.13
2017-10-25T17:26:42.065Z,3.00
2017-10-25T17:29:08.530Z,2.13
2017-10-25T17:31:34.942Z,3.33
2017-10-25T17:34:01.402Z,2.97
2017-10-25T17:36:27.908Z,4.23
2017-10-25T17:38:54.539Z,3.90
2017-10-25T17:41:20.938Z,3.23
2017-10-25T17:43:47.352Z,3.93
2017-10-25T17:46:13.850Z,6.00
2017-10-25T17:48:41.722Z,3.07
2017-10-25T17:51:08.203Z,3.77
2017-10-25T17:53:34.655Z,2.30
2017-10-25T17:56:01.245Z,2.60
2017-10-25T17:58:27.677Z,1.70
2017-10-25T18:00:54.654Z,2.80
2017-10-25T18:03:21.028Z,2.07
2017-10-25T18:05:47.460Z,2.43
2017-10-25T18:08:14.078Z,2.27
2017-10-25T18:10:40.499Z,2.27
2017-10-25T18:13:06.925Z,2.80
2017-10-25T18:15:34.038Z,2.70
2017-10-25T18:18:00.893Z,3.07
2017-10-25T18:20:27.458Z,2.23
2017-10-25T18:22:53.854Z,2.43
2017-10-25T18:25:20.237Z,3.20
2017-10-25T18:27:46.684Z,2.60
2017-10-25T18:30:14.127Z,2.43
2017-10-25T18:32:42.479Z,3.90
2017-10-25T18:35:08.818Z,3.87
2017-10-25T18:37:35.803Z,3.20
2017-10-25T18:40:02.259Z,3.57
2017-10-25T18:42:28.589Z,3.17
2017-10-25T18:44:55.035Z,2.70
2017-10-25T18:47:21.668Z,2.17
2017-10-25T18:49:48.201Z,2.73
2017-10-25T18:52:22.467Z,4.53
2017-10-25T18:54:50.489Z,3.43
2017-10-25T18:57:16.927Z,2.63
2017-10-25T18:59:43.394Z,5.80
2017-10-25T19:02:09.716Z,6.23
2017-10-25T19:04:36.367Z,9.60
2017-10-25T19:07:04.982Z,6.17
2017-10-25T19:09:31.348Z,5.10
2017-10-25T19:11:57.787Z,5.10
2017-10-25T19:14:24.296Z,6.90
2017-10-25T19:16:50.817Z,7.40
2017-10-25T19:19:17.291Z,5.30
2017-10-25T19:21:52.461Z,6.43
2017-10-25T19:24:18.840Z,6.73
2017-10-25T19:26:52.291Z,7.20
2017-10-25T19:29:18.780Z,7.53
2017-10-25T19:31:45.253Z,6.00
2017-10-25T19:34:16.975Z,11.20
2017-10-25T19:36:43.378Z,6.13
2017-10-25T19:39:09.856Z,9.50
2017-10-25T19:41:36.325Z,7.50
2017-10-25T19:44:02.793Z,8.70
2017-10-25T19:47:01.251Z,6.97
2017-10-25T19:49:27.694Z,7.97
2017-10-25T19:51:54.046Z,11.07
2017-10-25T19:54:20.376Z,7.53
2017-10-25T19:56:46.752Z,5.47
2017-10-25T19:59:13.253Z,27.03
2017-10-25T20:01:39.647Z,13.53
2017-10-25T20:04:06.016Z,6.80
2017-10-25T20:06:32.513Z,8.57
2017-10-25T20:08:58.930Z,7.27
2017-10-25T20:11:26.290Z,8.00
2017-10-25T20:13:53.465Z,6.10
2017-10-25T20:16:20.010Z,5.50
2017-10-25T20:18:46.503Z,4.90
2017-10-25T20:21:12.917Z,4.87
2017-10-25T20:23:39.355Z,6.23
2017-10-25T20:26:05.856Z,9.03
2017-10-25T20:28:32.810Z,5.97
2017-10-25T20:30:59.298Z,8.23
2017-10-25T20:33:26.226Z,5.07
2017-10-25T20:35:52.652Z,8.00
2017-10-25T20:38:19.855Z,6.63
2017-10-25T20:40:46.208Z,5.60
2017-10-25T20:43:13.288Z,5.60
2017-10-25T20:45:40.435Z,7.53
2017-10-25T20:48:06.834Z,5.60
2017-10-25T20:50:33.290Z,11.80
2017-10-25T20:52:59.687Z,5.20
2017-10-25T20:55:26.040Z,4.80
2017-10-25T20:57:52.441Z,4.40
2017-10-25T21:00:18.777Z,6.73
2017-10-25T21:02:45.102Z,4.03
2017-10-25T21:05:11.564Z,5.70
2017-10-25T21:07:38.037Z,4.20
2017-10-25T21:10:05.123Z,4.70
2017-10-25T21:12:31.442Z,4.33
2017-10-25T21:14:57.950Z,4.03
2017-10-25T21:17:24.508Z,4.50
2017-10-25T21:19:51.801Z,4.33
2017-10-25T21:22:18.326Z,4.97
2017-10-25T21:24:44.751Z,5.33
2017-10-25T21:27:11.199Z,4.57
2017-10-25T21:29:37.569Z,4.10
2017-10-25T21:32:03.968Z,5.23
2017-10-25T21:34:30.421Z,5.30
2017-10-25T21:36:58.219Z,4.80
2017-10-25T21:39:25.319Z,6.40
2017-10-25T21:41:51.714Z,10.23
2017-10-25T21:44:18.111Z,6.87
2017-10-25T21:46:44.660Z,12.50
2017-10-25T21:49:11.829Z,7.10
2017-10-25T21:51:39.245Z,5.93
2017-10-25T21:54:06.566Z,7.70
2017-10-25T21:56:33.174Z,7.63
2017-10-25T21:58:59.618Z,7.30
2017-10-25T22:01:26.090Z,7.10
2017-10-25T22:03:52.572Z,8.20
2017-10-25T22:06:19.838Z,8.53
2017-10-25T22:08:46.958Z,11.87
2017-10-25T22:11:13.361Z,9.80
2017-10-25T22:13:39.853Z,8.77
2017-10-25T22:16:06.997Z,8.53
2017-10-25T22:18:34.117Z,8.17
2017-10-25T22:21:00.557Z,9.80
2017-10-25T22:23:26.957Z,9.47
2017-10-25T22:25:53.383Z,9.00
2017-10-25T22:28:19.742Z,10.30
2017-10-25T22:30:46.148Z,9.70
2017-10-25T22:33:12.503Z,9.73
2017-10-25T22:35:38.879Z,11.13
2017-10-25T22:38:06.373Z,10.27
2017-10-25T22:40:33.659Z,12.30
2017-10-25T22:43:00.104Z,11.13
2017-10-25T22:45:26.458Z,9.50
2017-10-25T22:47:52.924Z,10.53
2017-10-25T22:50:19.376Z,11.77
2017-10-25T22:52:45.934Z,12.13
2017-10-25T22:55:13.299Z,14.20
2017-10-25T22:57:39.644Z,17.87
2017-10-25T23:00:06.160Z,13.23
2017-10-25T23:02:32.600Z,15.07
2017-10-25T23:04:59.772Z,12.80
2017-10-25T23:07:26.111Z,13.43
2017-10-25T23:09:52.497Z,12.40
2017-10-25T23:12:18.832Z,14.33
2017-10-25T23:14:46.085Z,14.07
2017-10-25T23:17:12.515Z,14.87
2017-10-25T23:19:40.001Z,15.73
2017-10-25T23:22:06.376Z,19.73
2017-10-25T23:24:32.850Z,14.07
2017-10-25T23:26:59.291Z,19.30
2017-10-25T23:29:25.630Z,14.67
2017-10-25T23:31:51.990Z,16.03
2017-10-25T23:34:18.474Z,16.77
2017-10-25T23:36:45.642Z,17.37
2017-10-25T23:39:11.983Z,21.37
2017-10-25T23:41:38.362Z,18.80
2017-10-25T23:44:04.909Z,19.77
2017-10-25T23:46:31.372Z,22.57
2017-10-25T23:48:57.827Z,20.50
2017-10-25T23:51:24.156Z,23.37
2017-10-25T23:53:50.547Z,24.63
2017-10-25T23:56:16.935Z,20.90
2017-10-25T23:58:43.345Z,20.20
